Terminal Aerodrome Forecast
Issued by NWS Cleveland, OH

Home | Current Version | Previous Version | Text Only | Print | Product List | Glossary On
Versions: 1 2 3 4 5 6 7 8 9 10 11 12 13 14 15 16 17 18 19 20 21 22 23 24 25 26 27 28 29 30 31 32 33 34 35
000
FTUS41 KCLE 271100
TAFCLE
TAF
KCLE 271128Z 2712/2818 36006KT 5SM -SN BKN012 OVC030
      TEMPO 2712/2714 2SM -SN SCT010 OVC020
     FM271800 34010KT P6SM OVC025
     FM280300 32005KT P6SM SCT025
     FM281500 25004KT P6SM SCT025=

USA.gov is the U.S. government's official web portal to all federal, state and local government web resources and services.